Terminal Aerodrome Forecast
Issued by NWS

Home | Current Version | Previous Version | Text Only | Print | Product List | Glossary On
Versions: 1 2 3 4 5 6 7 8 9 10 11 12 13 14 15 16 17 18 19 20 21 22 23 24 25 26 27 28 29 30 31 32
000
FTAK31 PANC 251419 AAB
TAFAEN
TAF AMD
PAEN 251419Z 2514/2612 21014KT P6SM VCSH SCT007 OVC012
      TEMPO 2514/2518 -RA BKN007
     FM252100 21012KT P6SM SCT015 BKN025
     FM260200 21012KT P6SM SCT025 BKN050
     FM260800 20005KT P6SM SCT015 OVC025=

USA.gov is the U.S. government's official web portal to all federal, state and local government web resources and services.